Time;durP1;ratioP1;P1;durP2;ratioP2;P2;SDS_P1;SDS_P2;PMS_P1;PMS_P2;Temp;Humidity;BMP_temperature;BMP_pressure;BME280_temperature;BME280_humidity;BME280_pressure;Samples;Min_cycle;Max_cycle;Signal;HPM_P1;HPM_P2
2021/10/26 00:01:41;;;;;;;5.75;3.90;;;8.00;99.90;;;;;;5040246;28;20465;-47
2021/10/26 00:04:09;;;;;;;5.05;3.35;;;8.10;99.90;;;;;;5041225;28;20220;-51
2021/10/26 00:06:36;;;;;;;3.13;2.83;;;8.00;99.90;;;;;;5040880;28;20203;-44
2021/10/26 00:09:05;;;;;;;3.78;3.42;;;7.70;99.90;;;;;;5040646;28;20235;-47
2021/10/26 00:11:33;;;;;;;3.47;3.17;;;7.80;99.90;;;;;;5040440;28;20511;-52
2021/10/26 00:14:01;;;;;;;8.38;3.63;;;7.80;99.90;;;;;;5041106;28;20266;-52
2021/10/26 00:16:28;;;;;;;3.95;3.65;;;7.80;99.90;;;;;;5040954;28;20278;-46
2021/10/26 00:18:55;;;;;;;6.90;3.80;;;7.80;99.90;;;;;;5040590;28;20507;-49
2021/10/26 00:21:22;;;;;;;3.72;3.38;;;7.70;99.90;;;;;;5039935;28;20310;-55
2021/10/26 00:23:50;;;;;;;6.75;3.78;;;7.70;99.90;;;;;;5040403;28;20275;-47
2021/10/26 00:26:17;;;;;;;4.00;3.53;;;7.60;99.90;;;;;;5040422;28;20200;-50
2021/10/26 00:28:44;;;;;;;8.77;4.15;;;7.60;99.90;;;;;;5040465;28;20474;-49
2021/10/26 00:31:11;;;;;;;5.40;3.05;;;7.70;99.90;;;;;;5040465;28;20203;-42
2021/10/26 00:33:38;;;;;;;3.50;3.17;;;7.90;99.90;;;;;;5040155;28;20220;-48
2021/10/26 00:36:06;;;;;;;5.03;4.22;;;7.90;99.90;;;;;;5040276;28;20495;-49
2021/10/26 00:38:34;;;;;;;8.00;4.47;;;7.80;99.90;;;;;;5040392;28;20546;-46
2021/10/26 00:41:01;;;;;;;3.50;3.03;;;7.50;99.90;;;;;;5040325;28;20224;-48
2021/10/26 00:43:29;;;;;;;4.53;3.28;;;7.40;99.90;;;;;;5040095;28;20270;-47
2021/10/26 00:45:57;;;;;;;4.95;3.72;;;7.20;99.90;;;;;;5040308;28;20257;-48
2021/10/26 00:48:24;;;;;;;5.43;4.07;;;7.20;99.90;;;;;;5039871;28;20210;-53
2021/10/26 00:50:52;;;;;;;32.42;7.47;;;7.20;99.90;;;;;;5040343;28;20254;-49
2021/10/26 00:53:19;;;;;;;5.55;4.32;;;7.40;99.90;;;;;;5039973;28;20434;-51
2021/10/26 00:55:48;;;;;;;7.57;4.28;;;7.40;99.90;;;;;;5040170;28;20210;-51
2021/10/26 00:58:17;;;;;;;5.07;3.88;;;7.40;99.90;;;;;;5039659;28;20212;-54
2021/10/26 01:00:44;;;;;;;5.20;4.00;;;7.40;99.90;;;;;;5039966;28;20242;-48
2021/10/26 01:03:12;;;;;;;5.78;4.45;;;7.40;99.90;;;;;;5040163;28;20226;-45
2021/10/26 01:05:39;;;;;;;5.28;4.20;;;7.50;99.90;;;;;;5039782;28;20226;-49
2021/10/26 01:08:06;;;;;;;4.68;4.30;;;7.60;99.90;;;;;;5039606;28;20246;-46
2021/10/26 01:10:34;;;;;;;5.80;3.78;;;7.60;99.90;;;;;;5039804;28;20247;-51
2021/10/26 01:13:03;;;;;;;4.07;3.47;;;7.60;99.90;;;;;;5039285;28;20275;-49
2021/10/26 01:15:32;;;;;;;3.85;3.30;;;7.50;99.90;;;;;;5039594;28;20220;-46
2021/10/26 01:17:59;;;;;;;4.35;3.95;;;7.60;99.90;;;;;;5039734;28;20199;-49
2021/10/26 01:20:27;;;;;;;5.13;3.88;;;7.60;99.90;;;;;;5039350;28;20227;-43
2021/10/26 01:22:54;;;;;;;7.80;4.57;;;7.70;99.90;;;;;;5039582;28;20224;-53
2021/10/26 01:25:21;;;;;;;4.35;4.05;;;7.70;99.90;;;;;;5036932;28;20547;-48
2021/10/26 01:27:53;;;;;;;6.43;4.32;;;7.70;99.90;;;;;;5039761;28;20254;-47
2021/10/26 01:30:26;;;;;;;3.65;3.35;;;7.70;99.90;;;;;;5039112;28;20270;-48
2021/10/26 01:32:54;;;;;;;7.05;4.85;;;7.70;99.90;;;;;;5040097;28;20543;-48
2021/10/26 01:35:21;;;;;;;4.95;3.88;;;7.70;99.90;;;;;;5037553;28;20224;-49
2021/10/26 01:37:48;;;;;;;8.23;4.32;;;7.70;99.90;;;;;;5039282;28;20311;-52
2021/10/26 01:40:16;;;;;;;5.53;4.18;;;7.70;99.90;;;;;;5039471;28;20208;-52
2021/10/26 01:42:44;;;;;;;7.32;4.80;;;7.70;99.90;;;;;;5038881;28;20224;-48
2021/10/26 01:45:12;;;;;;;8.02;5.15;;;7.70;99.90;;;;;;5039996;28;20223;-48
2021/10/26 01:47:39;;;;;;;15.52;5.00;;;7.60;99.90;;;;;;5040369;28;20204;-48
2021/10/26 01:50:09;;;;;;;5.40;4.63;;;7.50;99.90;;;;;;5040745;28;20247;-47
2021/10/26 01:52:37;;;;;;;6.88;5.43;;;7.50;99.90;;;;;;5039531;28;20202;-46
2021/10/26 01:55:06;;;;;;;7.45;4.85;;;7.50;99.90;;;;;;5040208;28;20227;-48
2021/10/26 01:57:34;;;;;;;5.00;4.47;;;7.40;99.90;;;;;;5040475;28;20200;-45
2021/10/26 02:00:05;;;;;;;8.27;5.57;;;7.30;99.90;;;;;;5041090;28;20200;-49
2021/10/26 02:02:32;;;;;;;9.05;5.07;;;7.40;99.90;;;;;;5038585;28;20215;-50
2021/10/26 02:04:59;;;;;;;6.15;4.60;;;7.30;99.90;;;;;;5038821;28;20223;-48
2021/10/26 02:07:27;;;;;;;8.35;5.50;;;7.30;99.90;;;;;;5039031;28;20375;-43
2021/10/26 02:09:54;;;;;;;7.88;5.00;;;7.30;99.90;;;;;;5039138;28;20288;-48
2021/10/26 02:12:21;;;;;;;7.15;5.28;;;7.20;99.90;;;;;;5039233;28;20204;-49
2021/10/26 02:14:49;;;;;;;5.40;4.75;;;7.10;99.90;;;;;;5039102;28;20278;-48
2021/10/26 02:17:16;;;;;;;6.32;4.38;;;7.00;99.90;;;;;;5038453;28;20383;-48
2021/10/26 02:19:43;;;;;;;4.90;4.47;;;7.10;99.90;;;;;;5038319;28;20204;-46
2021/10/26 02:22:10;;;;;;;6.45;5.03;;;7.10;99.90;;;;;;5038743;28;20227;-49
2021/10/26 02:24:37;;;;;;;8.98;5.75;;;6.90;99.90;;;;;;5042308;28;20243;-46
2021/10/26 02:27:05;;;;;;;5.20;4.65;;;6.90;99.90;;;;;;5041649;28;20196;-49
2021/10/26 02:29:32;;;;;;;7.35;6.60;;;6.90;99.90;;;;;;5042188;28;20204;-48
2021/10/26 02:31:59;;;;;;;6.43;5.10;;;6.80;99.90;;;;;;5042462;28;20239;-44
2021/10/26 02:34:26;;;;;;;7.97;6.00;;;6.80;99.90;;;;;;5042459;28;20464;-50
2021/10/26 02:36:54;;;;;;;5.55;5.05;;;6.80;99.90;;;;;;5041536;28;20200;-51
2021/10/26 02:39:21;;;;;;;7.50;5.30;;;6.70;99.90;;;;;;5039479;28;20521;-48
2021/10/26 02:41:48;;;;;;;10.45;5.53;;;6.80;99.90;;;;;;5042863;28;20273;-47
2021/10/26 02:44:16;;;;;;;5.85;4.63;;;6.80;99.90;;;;;;5042558;28;20224;-46
2021/10/26 02:46:43;;;;;;;6.90;5.20;;;6.70;99.90;;;;;;5042428;28;20200;-47
2021/10/26 02:49:10;;;;;;;8.50;5.90;;;6.70;99.90;;;;;;5041789;28;20197;-49
2021/10/26 02:51:38;;;;;;;6.43;5.35;;;6.80;99.90;;;;;;5042960;28;20254;-48
2021/10/26 02:54:05;;;;;;;10.32;7.68;;;6.70;99.90;;;;;;5042686;28;20450;-46
2021/10/26 02:56:33;;;;;;;6.82;6.13;;;6.70;99.90;;;;;;5042697;28;20204;-43
2021/10/26 02:59:00;;;;;;;7.97;6.50;;;6.70;99.90;;;;;;5042465;28;20207;-48
2021/10/26 03:01:28;;;;;;;8.38;6.20;;;6.70;99.90;;;;;;5042171;28;20230;-49
2021/10/26 03:03:55;;;;;;;8.45;5.32;;;6.60;99.90;;;;;;5041919;28;20223;-46
2021/10/26 03:06:22;;;;;;;6.53;5.50;;;6.60;99.90;;;;;;5039745;28;20262;-45
2021/10/26 03:08:49;;;;;;;7.68;6.45;;;6.50;99.90;;;;;;5042311;28;20207;-46
2021/10/26 03:11:17;;;;;;;8.13;6.78;;;6.50;99.90;;;;;;5040806;28;20207;-48
2021/10/26 03:13:44;;;;;;;11.27;6.47;;;6.30;99.90;;;;;;5042139;28;20223;-50
2021/10/26 03:16:12;;;;;;;13.05;7.22;;;6.20;99.90;;;;;;5041981;28;20222;-50
2021/10/26 03:18:39;;;;;;;10.27;7.68;;;6.20;99.90;;;;;;5041839;28;20200;-51
2021/10/26 03:21:06;;;;;;;8.13;7.28;;;6.20;99.90;;;;;;5041847;28;20254;-44
2021/10/26 03:23:33;;;;;;;9.73;6.15;;;6.10;99.90;;;;;;5041839;28;20266;-49
2021/10/26 03:26:01;;;;;;;9.70;6.30;;;6.00;99.90;;;;;;5042077;28;20266;-49
2021/10/26 03:28:28;;;;;;;8.98;6.38;;;6.00;99.90;;;;;;5041608;28;20246;-47
2021/10/26 03:30:57;;;;;;;9.55;6.70;;;6.00;99.90;;;;;;5041756;28;20199;-44
2021/10/26 03:33:24;;;;;;;10.65;7.60;;;5.90;99.90;;;;;;5040475;28;20442;-52
2021/10/26 03:35:54;;;;;;;8.68;7.72;;;5.90;99.90;;;;;;5040710;28;20236;-47
2021/10/26 03:38:22;;;;;;;10.27;9.23;;;5.90;99.90;;;;;;5041153;28;20258;-50
2021/10/26 03:40:49;;;;;;;10.82;7.55;;;5.90;99.90;;;;;;5041770;28;20201;-48
2021/10/26 03:43:16;;;;;;;11.27;8.05;;;5.90;99.90;;;;;;5042693;28;20244;-51
2021/10/26 03:45:43;;;;;;;9.82;7.63;;;5.80;99.90;;;;;;5040949;28;20317;-47
2021/10/26 03:48:11;;;;;;;9.82;6.28;;;5.70;99.90;;;;;;5042817;28;20235;-50
2021/10/26 03:50:38;;;;;;;10.73;7.80;;;5.60;99.90;;;;;;5041903;28;20210;-50
2021/10/26 03:53:05;;;;;;;7.60;6.55;;;5.40;99.90;;;;;;5041412;28;20247;-53
2021/10/26 03:55:32;;;;;;;9.13;8.18;;;5.60;99.90;;;;;;5041246;28;20426;-51
2021/10/26 03:58:00;;;;;;;10.35;7.20;;;5.80;99.90;;;;;;5041032;28;20253;-50
2021/10/26 04:00:27;;;;;;;8.88;7.68;;;5.90;99.90;;;;;;5041080;28;20258;-47
2021/10/26 04:02:55;;;;;;;9.52;6.95;;;6.00;99.90;;;;;;5041747;28;20222;-47
2021/10/26 04:05:36;;;;;;;10.68;7.90;;;6.10;99.90;;;;;;5045014;28;20556;-51
2021/10/26 04:08:24;;;;;;;12.57;7.70;;;6.10;99.90;;;;;;5039260;28;20196;-46
2021/10/26 04:10:54;;;;;;;8.65;7.00;;;6.00;99.90;;;;;;5041642;28;20211;-46
2021/10/26 04:13:24;;;;;;;9.80;7.53;;;6.10;99.90;;;;;;5037206;28;20242;-47
2021/10/26 04:15:51;;;;;;;9.27;7.43;;;6.00;99.90;;;;;;5041645;28;20200;-46
2021/10/26 04:18:19;;;;;;;14.73;8.60;;;6.00;99.90;;;;;;5032697;28;20210;-49
2021/10/26 04:20:46;;;;;;;8.63;7.72;;;6.00;99.90;;;;;;5041123;28;20241;-49
2021/10/26 04:23:14;;;;;;;7.80;6.95;;;5.80;99.90;;;;;;5040917;28;20302;-49
2021/10/26 04:25:41;;;;;;;11.10;8.25;;;5.80;99.90;;;;;;5036812;28;20212;-45
2021/10/26 04:28:08;;;;;;;10.27;8.07;;;5.80;99.90;;;;;;5040775;28;20202;-47
2021/10/26 04:30:37;;;;;;;12.30;8.35;;;5.80;99.90;;;;;;5041136;28;20475;-47
2021/10/26 04:33:06;;;;;;;8.77;6.65;;;5.70;99.90;;;;;;5041962;28;20442;-47
2021/10/26 04:35:33;;;;;;;10.88;8.00;;;5.70;99.90;;;;;;5041439;28;20230;-49
2021/10/26 04:38:01;;;;;;;10.35;9.00;;;5.80;99.90;;;;;;5041706;28;20371;-46
2021/10/26 04:40:28;;;;;;;16.17;9.20;;;5.80;99.90;;;;;;5035860;28;20204;-46
2021/10/26 04:42:56;;;;;;;16.33;10.35;;;6.00;99.90;;;;;;5040124;28;20234;-46
2021/10/26 04:45:23;;;;;;;10.32;9.07;;;5.90;99.90;;;;;;5030568;28;20234;-52
2021/10/26 04:47:51;;;;;;;14.73;10.18;;;6.00;99.90;;;;;;5024282;28;20543;-51
2021/10/26 04:50:19;;;;;;;13.38;9.57;;;6.10;99.90;;;;;;5029985;28;20196;-48
2021/10/26 04:52:47;;;;;;;17.98;10.10;;;6.10;99.90;;;;;;5027340;28;20357;-47
2021/10/26 04:55:14;;;;;;;17.85;11.40;;;6.00;99.90;;;;;;5029617;28;20274;-54
2021/10/26 04:57:43;;;;;;;11.10;9.18;;;6.10;99.90;;;;;;5040236;28;20244;-46
2021/10/26 05:00:12;;;;;;;17.48;10.85;;;6.10;99.90;;;;;;5045845;28;20211;-51
2021/10/26 05:02:39;;;;;;;11.90;9.52;;;6.00;99.90;;;;;;5040552;28;20231;-51
2021/10/26 05:05:09;;;;;;;19.83;12.30;;;6.00;99.90;;;;;;5043184;28;20216;-50
2021/10/26 05:07:36;;;;;;;13.30;9.52;;;5.90;99.90;;;;;;5040365;28;20233;-46
2021/10/26 05:10:04;;;;;;;15.57;10.68;;;5.80;99.90;;;;;;5040010;28;20265;-47
2021/10/26 05:12:31;;;;;;;13.55;8.45;;;5.60;99.90;;;;;;5038291;28;20198;-51
2021/10/26 05:14:59;;;;;;;13.27;9.60;;;5.70;99.90;;;;;;5038918;28;20267;-51
2021/10/26 05:17:27;;;;;;;17.10;9.75;;;5.80;99.90;;;;;;5039236;28;20211;-49
2021/10/26 05:19:56;;;;;;;13.52;9.18;;;5.80;99.90;;;;;;5039939;28;20266;-47
2021/10/26 05:22:25;;;;;;;16.48;9.63;;;5.90;99.90;;;;;;5039493;28;20293;-48
2021/10/26 05:24:53;;;;;;;15.80;10.20;;;6.00;99.90;;;;;;5039771;28;20218;-51
2021/10/26 05:27:21;;;;;;;15.68;9.65;;;6.00;99.90;;;;;;5040928;28;20208;-50
2021/10/26 05:29:49;;;;;;;14.75;8.60;;;6.00;99.90;;;;;;5043995;28;20502;-48
2021/10/26 05:32:16;;;;;;;13.80;9.55;;;5.90;99.90;;;;;;5041871;28;20406;-49
2021/10/26 05:34:44;;;;;;;13.15;8.75;;;6.00;99.90;;;;;;5039190;28;20230;-49
2021/10/26 05:37:12;;;;;;;15.30;9.52;;;6.00;99.90;;;;;;5039337;28;20234;-48
2021/10/26 05:39:41;;;;;;;12.93;9.10;;;6.20;99.90;;;;;;5041376;28;20208;-52
2021/10/26 05:42:08;;;;;;;15.15;10.65;;;6.10;99.90;;;;;;5038935;28;20222;-48
2021/10/26 05:44:35;;;;;;;10.68;8.68;;;5.80;99.90;;;;;;5038835;28;20266;-48
2021/10/26 05:47:03;;;;;;;13.43;9.05;;;5.70;99.90;;;;;;5040592;28;20196;-48
2021/10/26 05:49:30;;;;;;;10.27;8.75;;;5.80;99.90;;;;;;5039068;28;20433;-51
2021/10/26 05:51:59;;;;;;;15.15;10.18;;;5.80;99.90;;;;;;5038336;28;20534;-46
2021/10/26 05:54:27;;;;;;;10.60;8.15;;;5.80;99.90;;;;;;5039489;28;20231;-46
2021/10/26 05:56:54;;;;;;;11.55;8.27;;;5.90;99.90;;;;;;5039121;28;20220;-55
2021/10/26 05:59:21;;;;;;;10.52;8.23;;;5.90;99.90;;;;;;5037757;28;20211;-52
2021/10/26 06:01:49;;;;;;;10.90;8.35;;;6.30;99.90;;;;;;5038409;28;20231;-47
2021/10/26 06:04:17;;;;;;;12.00;8.10;;;6.40;99.90;;;;;;5039288;28;20553;-51
2021/10/26 06:06:45;;;;;;;11.75;9.13;;;6.40;99.90;;;;;;5039382;28;20241;-46
2021/10/26 06:09:16;;;;;;;12.77;9.48;;;6.40;99.90;;;;;;5039253;28;20257;-48
2021/10/26 06:11:48;;;;;;;11.48;7.88;;;6.30;99.90;;;;;;5039126;28;20249;-50
2021/10/26 06:14:15;;;;;;;8.73;7.53;;;6.50;99.90;;;;;;5039563;28;20228;-49
2021/10/26 06:16:43;;;;;;;15.18;7.97;;;6.50;99.90;;;;;;5039352;28;20204;-48
2021/10/26 06:19:10;;;;;;;13.88;7.95;;;6.80;99.90;;;;;;5039632;28;20257;-46
2021/10/26 06:21:38;;;;;;;8.95;7.53;;;7.00;99.90;;;;;;5038684;28;20245;-48
2021/10/26 06:24:05;;;;;;;14.00;7.57;;;6.90;99.90;;;;;;5038900;28;20235;-53
2021/10/26 06:26:33;;;;;;;7.97;6.88;;;7.10;99.90;;;;;;5038654;28;20204;-51
2021/10/26 06:29:00;;;;;;;8.93;7.63;;;7.30;99.90;;;;;;5038778;28;20200;-47
2021/10/26 06:31:27;;;;;;;11.60;9.00;;;7.30;99.90;;;;;;5038513;28;20254;-51
2021/10/26 06:33:55;;;;;;;11.98;9.15;;;7.40;99.90;;;;;;5039138;28;20273;-45
2021/10/26 06:36:22;;;;;;;11.65;8.05;;;7.50;99.90;;;;;;5039609;28;20258;-52
2021/10/26 06:38:51;;;;;;;9.98;7.80;;;7.50;99.90;;;;;;5033415;28;20209;-48
2021/10/26 06:41:20;;;;;;;13.90;9.38;;;7.70;99.90;;;;;;5034990;28;20290;-53
2021/10/26 06:43:48;;;;;;;24.70;8.38;;;7.90;99.90;;;;;;5038501;28;20243;-49
2021/10/26 06:46:16;;;;;;;11.65;9.57;;;7.90;99.90;;;;;;5031376;28;20234;-50
2021/10/26 06:48:44;;;;;;;12.80;8.98;;;7.70;99.90;;;;;;5038822;28;20208;-49
2021/10/26 06:51:11;;;;;;;13.85;9.05;;;7.50;99.90;;;;;;5040657;28;20231;-52
2021/10/26 06:53:40;;;;;;;14.27;9.75;;;7.70;99.90;;;;;;5038038;28;20321;-49
2021/10/26 06:56:14;;;;;;;13.15;10.00;;;7.80;99.90;;;;;;5038971;28;20209;-49
2021/10/26 06:58:42;;;;;;;19.45;13.65;;;7.90;99.90;;;;;;5038080;28;20209;-50
2021/10/26 07:01:09;;;;;;;26.38;14.00;;;7.90;99.90;;;;;;5038256;28;20546;-50
2021/10/26 07:03:40;;;;;;;22.70;13.00;;;8.10;99.90;;;;;;5038194;28;20538;-46
2021/10/26 07:06:08;;;;;;;14.02;10.32;;;8.30;99.90;;;;;;5038689;28;20196;-49
2021/10/26 07:08:36;;;;;;;17.90;12.05;;;8.50;99.90;;;;;;5040244;28;20212;-47
2021/10/26 07:11:04;;;;;;;20.33;11.27;;;9.00;99.90;;;;;;5041946;28;20196;-48
2021/10/26 07:13:35;;;;;;;18.17;10.02;;;9.30;99.90;;;;;;5041761;28;20230;-47
2021/10/26 07:16:03;;;;;;;21.95;11.15;;;9.90;99.90;;;;;;5042382;28;20206;-46
2021/10/26 07:18:31;;;;;;;18.27;10.65;;;10.30;99.90;;;;;;5042121;28;20251;-48
2021/10/26 07:20:59;;;;;;;13.77;9.57;;;11.00;99.90;;;;;;5042123;28;20254;-47
2021/10/26 07:23:27;;;;;;;12.60;10.10;;;11.10;99.90;;;;;;5042196;28;20336;-46
2021/10/26 07:25:54;;;;;;;17.73;10.32;;;11.10;99.90;;;;;;5042168;28;20250;-49
2021/10/26 07:28:22;;;;;;;12.85;10.30;;;11.30;99.90;;;;;;5041912;28;20206;-47
2021/10/26 07:30:50;;;;;;;12.98;9.02;;;11.50;99.90;;;;;;5042222;28;20328;-50
2021/10/26 07:33:21;;;;;;;10.25;9.10;;;11.70;99.90;;;;;;5041286;28;20207;-49
2021/10/26 07:35:51;;;;;;;12.18;8.82;;;11.80;99.90;;;;;;5041874;28;20212;-48
2021/10/26 07:38:35;;;;;;;11.68;9.55;;;12.00;99.90;;;;;;5040081;28;20210;-53
2021/10/26 07:41:05;;;;;;;13.10;9.65;;;12.40;99.90;;;;;;5042298;28;20526;-53
2021/10/26 07:43:34;;;;;;;22.73;8.15;;;12.20;99.90;;;;;;5040959;28;20242;-47
2021/10/26 07:46:03;;;;;;;10.52;9.27;;;12.10;99.90;;;;;;5041196;28;20398;-48
2021/10/26 07:48:31;;;;;;;9.55;7.95;;;12.10;99.90;;;;;;5041130;28;20204;-47
2021/10/26 07:51:01;;;;;;;11.50;9.88;;;12.50;99.90;;;;;;5041503;28;20203;-47
2021/10/26 07:53:30;;;;;;;10.52;8.10;;;12.30;99.90;;;;;;5041540;28;20254;-49
2021/10/26 07:55:58;;;;;;;11.93;9.50;;;12.00;99.90;;;;;;5041551;28;20212;-49
2021/10/26 07:58:26;;;;;;;16.17;10.43;;;12.00;99.90;;;;;;5041627;28;20208;-54
2021/10/26 08:00:53;;;;;;;13.65;9.13;;;12.40;99.90;;;;;;5041834;28;20230;-45
2021/10/26 08:03:21;;;;;;;15.55;10.00;;;12.80;99.90;;;;;;5043887;28;20226;-50
2021/10/26 08:05:50;;;;;;;10.23;8.15;;;12.90;99.90;;;;;;5045570;28;20200;-45
2021/10/26 08:08:17;;;;;;;11.40;8.07;;;13.00;99.90;;;;;;5043139;28;20203;-49
2021/10/26 08:10:46;;;;;;;8.65;7.75;;;13.10;99.90;;;;;;5041052;28;20231;-49
2021/10/26 08:13:15;;;;;;;18.42;7.90;;;13.30;99.90;;;;;;5044221;28;20366;-48
2021/10/26 08:15:42;;;;;;;10.20;7.72;;;13.60;99.90;;;;;;5041068;28;20242;-47
2021/10/26 08:18:10;;;;;;;11.25;7.43;;;13.90;99.90;;;;;;5041214;28;20250;-49
2021/10/26 08:20:38;;;;;;;11.15;8.05;;;14.00;99.90;;;;;;5046336;28;20211;-48
2021/10/26 08:23:05;;;;;;;14.57;8.85;;;14.20;99.90;;;;;;5042509;28;20215;-49
2021/10/26 08:25:36;;;;;;;10.20;8.90;;;14.30;99.90;;;;;;5046467;28;20454;-49
2021/10/26 08:28:08;;;;;;;10.77;7.95;;;14.20;99.90;;;;;;5044145;28;20223;-47
2021/10/26 08:36:04;;;;;;;12.82;8.57;;;13.70;99.90;;;;;;5040819;28;20212;-45
2021/10/26 08:38:31;;;;;;;7.57;6.88;;;13.80;99.90;;;;;;5037816;28;20248;-50
2021/10/26 08:41:01;;;;;;;12.35;7.90;;;13.70;99.90;;;;;;5037757;28;20508;-46
2021/10/26 08:43:28;;;;;;;15.32;12.05;;;13.70;99.90;;;;;;5040244;28;20424;-49
2021/10/26 08:45:58;;;;;;;14.30;8.95;;;13.80;99.90;;;;;;5041210;28;20214;-50
2021/10/26 08:48:26;;;;;;;11.07;8.05;;;14.00;99.90;;;;;;5046787;28;20200;-54
2021/10/26 08:50:57;;;;;;;7.88;7.10;;;14.10;99.90;;;;;;5042643;28;20196;-47
2021/10/26 08:53:26;;;;;;;9.10;8.10;;;14.30;99.90;;;;;;5042083;28;20200;-53
2021/10/26 08:56:00;;;;;;;10.32;8.20;;;14.40;99.90;;;;;;5040471;28;20263;-53
2021/10/26 08:58:29;;;;;;;9.38;8.38;;;14.70;99.90;;;;;;5032645;28;20208;-52
2021/10/26 09:00:58;;;;;;;11.45;8.80;;;14.80;99.90;;;;;;5041127;28;20253;-45
2021/10/26 09:03:34;;;;;;;9.98;8.40;;;14.60;99.90;;;;;;5040656;28;20231;-49
2021/10/26 09:06:03;;;;;;;14.13;9.40;;;13.80;99.90;;;;;;5040802;28;20200;-49
2021/10/26 09:08:30;;;;;;;10.07;7.97;;;13.50;99.90;;;;;;5040383;28;20246;-49
2021/10/26 09:11:05;;;;;;;18.10;7.85;;;13.50;99.90;;;;;;5040342;28;20358;-51
2021/10/26 09:19:10;;;;;;;8.35;7.50;;;14.50;99.90;;;;;;5040148;28;20384;-50
2021/10/26 09:21:39;;;;;;;11.57;7.97;;;14.50;99.90;;;;;;5034499;28;20204;-46
2021/10/26 09:24:10;;;;;;;8.15;7.35;;;14.60;99.90;;;;;;5040020;28;20432;-49
2021/10/26 09:26:53;;;;;;;9.30;7.38;;;14.50;99.90;;;;;;5034911;28;20488;-48
2021/10/26 09:29:44;;;;;;;7.70;6.90;;;14.20;99.90;;;;;;5033190;28;20216;-51
2021/10/26 09:32:21;;;;;;;11.35;8.35;;;14.10;99.90;;;;;;5038606;28;20235;-49
2021/10/26 09:34:57;;;;;;;8.23;7.43;;;14.10;99.90;;;;;;5039410;28;20271;-52
2021/10/26 09:37:25;;;;;;;8.40;7.55;;;14.30;99.90;;;;;;5039754;28;20502;-50
2021/10/26 09:39:58;;;;;;;8.85;5.95;;;14.10;99.90;;;;;;5039202;28;20499;-46
2021/10/26 09:42:44;;;;;;;11.43;8.90;;;14.40;99.90;;;;;;5032731;28;20511;-43
2021/10/26 09:45:24;;;;;;;9.45;6.80;;;14.50;99.90;;;;;;5039259;28;20239;-49
2021/10/26 09:47:54;;;;;;;9.38;8.20;;;14.60;99.90;;;;;;5039376;28;20199;-50
2021/10/26 09:50:28;;;;;;;6.93;6.18;;;14.60;99.90;;;;;;5039492;28;20204;-51
2021/10/26 09:53:06;;;;;;;9.02;6.07;;;14.70;99.90;;;;;;5038809;28;20461;-49
2021/10/26 09:55:46;;;;;;;6.82;6.05;;;14.60;99.90;;;;;;5039322;28;20228;-52
2021/10/26 09:58:19;;;;;;;11.05;6.78;;;14.60;99.90;;;;;;5039143;28;20205;-49
2021/10/26 10:00:50;;;;;;;5.38;4.90;;;14.70;99.90;;;;;;5046610;28;20268;-49
2021/10/26 10:03:22;;;;;;;9.48;6.45;;;14.70;99.90;;;;;;5038679;28;20225;-46
2021/10/26 10:05:57;;;;;;;7.50;5.93;;;14.80;99.90;;;;;;5037293;28;20215;-49
2021/10/26 10:08:28;;;;;;;11.73;6.65;;;14.90;99.90;;;;;;5040501;28;20257;-51
2021/10/26 10:11:15;;;;;;;6.15;5.63;;;14.80;99.90;;;;;;5037596;28;20561;-49
2021/10/26 10:13:48;;;;;;;6.93;5.70;;;14.70;99.90;;;;;;5038741;28;20224;-49
2021/10/26 10:16:20;;;;;;;10.35;6.55;;;14.70;99.90;;;;;;5038786;28;20269;-53
2021/10/26 10:18:51;;;;;;;7.28;6.13;;;14.90;99.90;;;;;;5038629;28;20216;-47
2021/10/26 10:21:23;;;;;;;7.28;6.53;;;15.00;99.90;;;;;;5036051;28;20204;-53
2021/10/26 10:23:51;;;;;;;8.27;6.45;;;15.20;99.90;;;;;;5034606;28;20228;-48
2021/10/26 10:26:23;;;;;;;6.95;6.15;;;15.30;99.90;;;;;;5039122;28;20197;-49
2021/10/26 10:28:52;;;;;;;7.32;5.80;;;15.50;99.90;;;;;;5038833;28;20204;-49
2021/10/26 10:31:23;;;;;;;11.68;5.82;;;15.80;99.90;;;;;;5033915;28;20199;-49
2021/10/26 10:33:50;;;;;;;9.10;6.60;;;15.60;99.90;;;;;;5043120;28;20577;-49
2021/10/26 10:36:20;;;;;;;9.48;6.97;;;15.80;99.90;;;;;;5038907;28;20271;-50
2021/10/26 10:38:47;;;;;;;9.55;7.35;;;16.10;99.90;;;;;;5038673;28;20205;-53
2021/10/26 10:41:28;;;;;;;6.83;6.13;;;16.20;99.90;;;;;;5039194;28;20244;-45
2021/10/26 10:44:00;;;;;;;11.10;5.95;;;16.10;99.90;;;;;;5038624;28;20463;-46
2021/10/26 10:46:37;;;;;;;8.20;6.05;;;16.30;99.90;;;;;;5042756;28;20210;-51
2021/10/26 10:49:19;;;;;;;6.20;5.30;;;16.20;99.90;;;;;;5046538;28;20209;-49
2021/10/26 10:52:02;;;;;;;8.90;7.07;;;16.10;99.90;;;;;;5042333;28;20415;-49
2021/10/26 10:54:36;;;;;;;7.43;5.63;;;16.20;99.90;;;;;;5035814;28;20241;-46
2021/10/26 10:57:33;;;;;;;7.82;5.85;;;16.30;99.90;;;;;;5042058;28;20437;-50
2021/10/26 11:00:04;;;;;;;6.83;6.10;;;16.60;99.90;;;;;;5043368;28;20205;-52
2021/10/26 11:02:45;;;;;;;8.38;7.07;;;16.50;99.90;;;;;;5044615;28;20627;-43
2021/10/26 11:05:31;;;;;;;6.77;6.17;;;16.50;99.90;;;;;;5042140;28;20236;-48
2021/10/26 11:08:03;;;;;;;6.67;6.00;;;16.30;99.90;;;;;;5039788;28;20405;-52
2021/10/26 11:10:48;;;;;;;13.90;6.27;;;16.30;99.90;;;;;;5042262;28;20536;-48
2021/10/26 11:13:21;;;;;;;5.80;5.23;;;16.50;99.90;;;;;;5045037;28;20668;-43
2021/10/26 11:15:51;;;;;;;6.47;5.87;;;16.50;99.90;;;;;;5038708;28;20448;-48
2021/10/26 11:18:34;;;;;;;8.23;6.47;;;16.60;99.90;;;;;;5042098;28;20465;-48
2021/10/26 11:21:03;;;;;;;8.23;6.50;;;16.80;99.90;;;;;;5042035;28;20811;-47
2021/10/26 11:23:34;;;;;;;7.63;6.93;;;16.90;99.90;;;;;;5042112;28;20529;-51
2021/10/26 11:26:05;;;;;;;7.07;6.30;;;17.10;99.90;;;;;;5041909;28;20651;-49
2021/10/26 11:28:37;;;;;;;7.03;5.77;;;17.00;99.90;;;;;;5037379;28;20500;-53
2021/10/26 11:31:10;;;;;;;6.53;5.93;;;16.90;99.90;;;;;;5040159;28;20439;-52
2021/10/26 11:33:39;;;;;;;5.03;4.50;;;16.90;99.90;;;;;;5037608;28;20461;-47
2021/10/26 11:36:08;;;;;;;7.60;5.70;;;16.80;99.90;;;;;;5043391;28;20449;-48
2021/10/26 11:38:44;;;;;;;8.80;6.50;;;17.00;99.90;;;;;;5042645;28;20441;-52
2021/10/26 11:41:15;;;;;;;7.10;6.27;;;17.30;99.90;;;;;;5042202;28;20519;-50
2021/10/26 11:43:44;;;;;;;8.00;6.43;;;17.50;99.90;;;;;;5041254;28;20878;-48
2021/10/26 11:46:19;;;;;;;6.37;5.70;;;17.60;99.90;;;;;;5034496;28;20397;-52
2021/10/26 11:48:55;;;;;;;12.03;6.00;;;17.50;99.90;;;;;;5041782;28;20404;-49
2021/10/26 11:51:38;;;;;;;8.33;5.47;;;17.20;99.90;;;;;;5041412;28;20444;-50
2021/10/26 11:54:20;;;;;;;8.10;5.47;;;17.00;99.90;;;;;;5041536;28;20457;-50
2021/10/26 11:56:49;;;;;;;6.67;5.97;;;17.30;99.90;;;;;;5041165;28;20501;-49
2021/10/26 11:59:26;;;;;;;7.20;5.53;;;17.30;99.90;;;;;;5033631;28;20440;-47
2021/10/26 12:02:05;;;;;;;7.17;4.93;;;17.20;99.90;;;;;;5045258;28;20409;-51
2021/10/26 12:04:35;;;;;;;7.40;5.13;;;17.20;99.90;;;;;;5035115;28;20808;-44
2021/10/26 12:07:08;;;;;;;9.10;6.17;;;17.10;99.90;;;;;;5042907;28;20437;-51
2021/10/26 12:09:41;;;;;;;13.47;6.17;;;17.00;99.90;;;;;;5034942;28;20461;-52
2021/10/26 12:12:10;;;;;;;8.63;6.50;;;17.00;99.90;;;;;;5040653;28;20432;-54
2021/10/26 12:14:44;;;;;;;7.03;6.00;;;17.30;99.90;;;;;;5040435;28;20461;-50
2021/10/26 12:17:24;;;;;;;7.50;6.73;;;17.30;99.90;;;;;;5040764;28;20774;-52
2021/10/26 12:20:23;;;;;;;6.77;6.07;;;17.10;99.90;;;;;;5040819;28;20544;-47
2021/10/26 12:22:56;;;;;;;6.03;5.40;;;17.00;99.90;;;;;;5040442;28;20523;-50
2021/10/26 12:25:30;;;;;;;10.00;6.60;;;16.70;99.90;;;;;;5040947;28;20504;-48
2021/10/26 12:28:06;;;;;;;7.40;6.00;;;16.60;99.90;;;;;;5040442;28;20413;-49
2021/10/26 12:30:41;;;;;;;5.27;4.77;;;16.40;99.90;;;;;;5040763;28;20476;-50
2021/10/26 12:33:19;;;;;;;7.20;5.33;;;16.20;99.90;;;;;;5040527;28;20416;-46
2021/10/26 12:35:54;;;;;;;8.27;5.70;;;16.10;99.90;;;;;;5038580;28;20462;-48
2021/10/26 12:38:35;;;;;;;7.00;5.67;;;16.10;99.90;;;;;;5040764;28;20472;-49
2021/10/26 12:41:07;;;;;;;8.17;5.30;;;16.10;99.90;;;;;;5032615;28;20429;-52
2021/10/26 12:43:35;;;;;;;7.00;6.27;;;16.30;99.90;;;;;;5036183;28;20465;-49
2021/10/26 12:46:24;;;;;;;9.43;5.47;;;16.40;99.90;;;;;;5040518;28;20407;-48
2021/10/26 12:49:05;;;;;;;11.60;6.00;;;16.50;99.90;;;;;;5038253;28;20456;-49
2021/10/26 12:51:37;;;;;;;9.30;5.77;;;16.50;99.90;;;;;;5042134;28;20413;-50
2021/10/26 12:54:12;;;;;;;7.30;5.33;;;16.40;99.90;;;;;;5040711;28;20472;-47
2021/10/26 12:56:50;;;;;;;13.97;5.70;;;16.40;99.90;;;;;;5034888;28;20417;-46
2021/10/26 12:59:18;;;;;;;6.97;5.80;;;16.70;99.90;;;;;;5040365;28;20443;-53
2021/10/26 13:01:47;;;;;;;8.85;5.38;;;16.70;99.90;;;;;;5038328;28;20421;-48
2021/10/26 13:04:18;;;;;;;7.68;5.25;;;16.60;99.90;;;;;;5039517;28;20228;-49
2021/10/26 13:07:03;;;;;;;5.33;4.80;;;16.40;99.90;;;;;;5037674;28;20439;-48
2021/10/26 13:09:51;;;;;;;6.00;5.40;;;16.30;99.90;;;;;;5037003;28;20431;-50
2021/10/26 13:12:34;;;;;;;6.77;6.07;;;16.60;99.90;;;;;;5039686;28;20208;-50
2021/10/26 13:15:12;;;;;;;7.95;5.20;;;16.60;99.90;;;;;;5037375;28;20476;-47